createdAt,value
2018-05-09T00:01:29.892Z,46.00
2018-05-09T00:03:57.311Z,46.00
2018-05-09T00:06:25.515Z,47.20
2018-05-09T00:08:52.940Z,47.20
2018-05-09T00:11:20.372Z,47.70
2018-05-09T00:13:47.811Z,47.80
2018-05-09T00:16:15.245Z,49.20
2018-05-09T00:18:42.672Z,49.30
2018-05-09T00:21:10.509Z,50.20
2018-05-09T00:23:37.936Z,50.60
2018-05-09T00:26:05.391Z,50.70
2018-05-09T00:28:32.812Z,51.50
2018-05-09T00:31:01.030Z,53.00
2018-05-09T00:33:28.459Z,52.90
2018-05-09T00:35:57.627Z,53.40
2018-05-09T00:38:25.109Z,53.40
2018-05-09T00:40:52.488Z,54.20
2018-05-09T00:43:19.919Z,54.40
2018-05-09T00:45:49.051Z,55.80
2018-05-09T00:48:16.475Z,55.80
2018-05-09T00:50:44.672Z,57.40
2018-05-09T00:53:12.106Z,57.40
2018-05-09T00:55:40.318Z,58.50
2018-05-09T00:58:07.748Z,58.40
2018-05-09T01:00:35.951Z,61.10
2018-05-09T01:03:03.378Z,61.20
2018-05-09T01:05:31.600Z,64.10
2018-05-09T01:07:59.027Z,64.10
2018-05-09T01:10:26.457Z,64.90
2018-05-09T01:12:54.173Z,66.80
2018-05-09T01:15:21.589Z,67.60
2018-05-09T01:17:49.094Z,68.60
2018-05-09T01:20:16.530Z,71.50
2018-05-09T01:22:43.971Z,72.30
2018-05-09T01:25:11.399Z,73.20
2018-05-09T01:27:38.837Z,73.10
2018-05-09T01:30:06.366Z,74.90
2018-05-09T01:32:33.770Z,76.00
2018-05-09T01:35:01.200Z,76.70
2018-05-09T01:37:28.632Z,77.50
2018-05-09T01:39:56.068Z,77.70
2018-05-09T01:42:24.255Z,77.70
2018-05-09T01:44:51.697Z,77.70
2018-05-09T01:47:19.901Z,77.80
2018-05-09T01:49:47.327Z,77.80
2018-05-09T01:52:15.524Z,77.90
2018-05-09T01:54:42.958Z,77.90
2018-05-09T01:57:11.237Z,79.40
2018-05-09T01:59:39.505Z,80.00
2018-05-09T02:02:07.707Z,80.50
2018-05-09T02:04:35.143Z,80.40
2018-05-09T02:07:03.335Z,80.50
2018-05-09T02:09:30.771Z,80.50
2018-05-09T02:11:58.971Z,80.80
2018-05-09T02:14:26.435Z,80.00
2018-05-09T02:16:53.875Z,80.80
2018-05-09T02:19:21.300Z,81.00
2018-05-09T02:21:50.028Z,81.10
2018-05-09T02:24:17.568Z,81.10
2018-05-09T02:26:45.768Z,82.20
2018-05-09T02:29:13.187Z,82.20
2018-05-09T02:31:40.628Z,82.40
2018-05-09T02:34:08.064Z,82.90
2018-05-09T02:36:35.507Z,82.80
2018-05-09T02:39:02.942Z,83.80
2018-05-09T02:41:31.136Z,83.80
2018-05-09T02:43:58.581Z,83.80
2018-05-09T02:46:26.003Z,84.40
2018-05-09T02:48:53.428Z,84.80
2018-05-09T02:51:20.978Z,86.00
2018-05-09T02:53:49.336Z,85.70
2018-05-09T02:56:16.778Z,85.50
2018-05-09T02:58:44.956Z,85.20
2018-05-09T03:01:13.167Z,85.50
2018-05-09T03:03:40.593Z,85.40
2018-05-09T03:06:08.023Z,85.90
2018-05-09T03:08:35.455Z,85.70
2018-05-09T03:11:02.891Z,85.30
2018-05-09T03:13:30.342Z,86.00
2018-05-09T03:15:57.767Z,86.00
2018-05-09T03:18:25.969Z,87.20
2018-05-09T03:20:53.399Z,87.10
2018-05-09T03:23:21.611Z,87.10
2018-05-09T03:25:50.178Z,88.20
2018-05-09T03:28:17.673Z,87.10
2018-05-09T03:30:45.114Z,87.20
2018-05-09T03:33:12.584Z,86.70
2018-05-09T03:35:40.942Z,86.70
2018-05-09T03:38:08.403Z,86.70
2018-05-09T03:40:35.836Z,86.80
2018-05-09T03:43:04.043Z,87.60
2018-05-09T03:45:31.493Z,87.60
2018-05-09T03:47:58.934Z,87.70
2018-05-09T03:50:26.368Z,87.90
2018-05-09T03:52:54.991Z,88.20
2018-05-09T03:55:22.413Z,88.20
2018-05-09T03:57:50.611Z,88.20
2018-05-09T04:00:18.055Z,88.20
2018-05-09T04:02:57.300Z,88.50
2018-05-09T04:05:37.369Z,87.60
2018-05-09T04:08:16.791Z,88.40
2018-05-09T04:10:45.003Z,88.90
2018-05-09T04:13:12.475Z,89.10
2018-05-09T04:15:39.867Z,89.00
2018-05-09T04:18:08.100Z,89.50
2018-05-09T04:20:35.604Z,89.50
2018-05-09T04:23:02.967Z,88.00
2018-05-09T04:25:31.171Z,89.20
2018-05-09T04:27:59.239Z,89.10
2018-05-09T04:30:26.665Z,89.10
2018-05-09T04:32:54.931Z,89.20
2018-05-09T04:35:23.134Z,89.20
2018-05-09T04:37:50.564Z,89.00
2018-05-09T04:40:19.266Z,88.60
2018-05-09T04:42:46.715Z,88.50
2018-05-09T04:45:14.905Z,89.50
2018-05-09T04:47:42.352Z,89.50
2018-05-09T04:50:09.788Z,89.20
2018-05-09T04:52:37.227Z,89.30
2018-05-09T04:55:04.657Z,89.20
2018-05-09T04:57:32.101Z,88.60
2018-05-09T04:59:59.550Z,88.60
2018-05-09T05:02:27.737Z,88.90
2018-05-09T05:04:55.187Z,88.90
2018-05-09T05:07:22.620Z,88.80
2018-05-09T05:09:50.810Z,88.80
2018-05-09T05:12:18.247Z,88.80
2018-05-09T05:14:46.468Z,88.40
2018-05-09T05:17:13.928Z,88.30
2018-05-09T05:19:41.355Z,88.00
2018-05-09T05:22:08.833Z,88.30
2018-05-09T05:24:36.255Z,88.00
2018-05-09T05:27:04.497Z,87.40
2018-05-09T05:29:31.882Z,87.30
2018-05-09T05:32:00.146Z,87.40
2018-05-09T05:34:28.610Z,87.30
2018-05-09T05:36:56.023Z,86.60
2018-05-09T05:39:24.085Z,87.40
2018-05-09T05:41:52.282Z,86.60
2018-05-09T05:44:19.794Z,86.60
2018-05-09T05:46:47.205Z,86.40
2018-05-09T05:49:14.733Z,86.10
2018-05-09T05:51:42.898Z,86.10
2018-05-09T05:54:11.121Z,86.20
2018-05-09T05:56:38.535Z,86.10
2018-05-09T05:59:06.761Z,85.40
2018-05-09T06:01:34.198Z,85.20
2018-05-09T06:04:01.659Z,84.50
2018-05-09T06:06:29.263Z,84.20
2018-05-09T06:08:56.603Z,83.70
2018-05-09T06:11:24.028Z,83.50
2018-05-09T06:13:51.456Z,82.20
2018-05-09T06:16:19.650Z,81.50
2018-05-09T06:18:47.130Z,81.30
2018-05-09T06:21:14.596Z,80.10
2018-05-09T06:23:42.119Z,79.80
2018-05-09T06:26:09.625Z,78.60
2018-05-09T06:28:37.074Z,78.00
2018-05-09T06:31:04.578Z,77.50
2018-05-09T06:33:31.990Z,74.60
2018-05-09T06:35:59.405Z,70.40
2018-05-09T06:38:26.920Z,63.90
2018-05-09T06:40:54.347Z,56.20
2018-05-09T06:43:21.775Z,51.50
2018-05-09T06:45:49.887Z,47.10
2018-05-09T06:48:17.343Z,42.90
2018-05-09T06:50:44.759Z,40.60
2018-05-09T06:53:12.204Z,38.00
2018-05-09T06:55:40.424Z,32.90
2018-05-09T06:58:07.868Z,32.30
2018-05-09T07:00:35.281Z,31.50
2018-05-09T07:03:03.493Z,30.40
2018-05-09T07:05:30.927Z,30.30
2018-05-09T07:07:58.448Z,28.70
2018-05-09T07:10:25.891Z,28.30
2018-05-09T07:12:53.359Z,25.90
2018-05-09T07:15:20.805Z,25.20
2018-05-09T07:17:48.228Z,24.40
2018-05-09T07:20:16.423Z,25.30
2018-05-09T07:22:43.904Z,25.20
2018-05-09T07:25:11.348Z,25.30
2018-05-09T07:27:38.835Z,25.60
2018-05-09T07:30:06.278Z,25.10
2018-05-09T07:32:33.731Z,25.00
2018-05-09T07:35:01.185Z,25.80
2018-05-09T07:37:28.607Z,26.70
2018-05-09T07:39:56.803Z,27.20
2018-05-09T07:42:24.235Z,27.10
2018-05-09T07:44:52.436Z,26.30
2018-05-09T07:47:19.861Z,26.30
2018-05-09T07:49:48.057Z,25.80
2018-05-09T07:52:15.741Z,25.80
2018-05-09T07:54:43.175Z,24.90
2018-05-09T07:57:12.423Z,24.60
2018-05-09T07:59:39.908Z,23.90
2018-05-09T08:02:07.409Z,22.80
2018-05-09T08:04:34.866Z,24.10
2018-05-09T08:07:02.292Z,23.70
2018-05-09T08:09:30.498Z,23.60
2018-05-09T08:11:57.928Z,23.60
2018-05-09T08:14:26.168Z,23.80
2018-05-09T08:16:53.692Z,23.80
2018-05-09T08:19:21.177Z,24.70
2018-05-09T08:21:48.610Z,24.60
2018-05-09T08:24:16.041Z,24.70
2018-05-09T08:26:43.472Z,24.90
2018-05-09T08:29:10.910Z,25.40
2018-05-09T08:31:38.348Z,26.60
2018-05-09T08:34:05.783Z,26.00
2018-05-09T08:36:33.245Z,25.60
2018-05-09T08:39:01.411Z,25.40
2018-05-09T08:41:28.835Z,24.80
2018-05-09T08:43:57.177Z,24.80
2018-05-09T08:46:24.463Z,24.80
2018-05-09T08:48:51.895Z,25.90
2018-05-09T08:51:19.328Z,25.90
2018-05-09T08:53:46.751Z,26.30
2018-05-09T08:56:14.957Z,26.30
2018-05-09T08:58:42.379Z,26.20
2018-05-09T09:01:10.583Z,25.10
2018-05-09T09:03:38.060Z,25.10
2018-05-09T09:06:05.501Z,25.20
2018-05-09T09:08:32.928Z,24.70
2018-05-09T09:11:01.133Z,24.90
2018-05-09T09:13:28.606Z,23.40
2018-05-09T09:15:56.024Z,23.90
2018-05-09T09:18:24.231Z,25.00
2018-05-09T09:20:51.680Z,24.90
2018-05-09T09:23:19.099Z,24.70
2018-05-09T09:25:47.319Z,25.00
2018-05-09T09:28:14.760Z,25.00
2018-05-09T09:30:42.195Z,25.20
2018-05-09T09:33:10.395Z,24.80
2018-05-09T09:35:37.828Z,24.80
2018-05-09T09:38:06.023Z,24.10
2018-05-09T09:40:33.599Z,24.10
2018-05-09T09:43:00.975Z,23.70
2018-05-09T09:45:28.408Z,23.40
2018-05-09T09:47:55.832Z,23.50
2018-05-09T09:50:24.035Z,23.00
2018-05-09T09:52:51.460Z,23.70
2018-05-09T09:55:19.666Z,23.70
2018-05-09T09:57:47.107Z,23.70
2018-05-09T10:00:15.416Z,23.90
2018-05-09T10:02:42.833Z,23.80
2018-05-09T10:05:11.037Z,23.50
2018-05-09T10:07:38.471Z,23.50
2018-05-09T10:10:06.669Z,23.60
2018-05-09T10:12:34.100Z,23.60
2018-05-09T10:15:02.318Z,22.40
2018-05-09T10:17:29.723Z,22.40
2018-05-09T10:19:57.934Z,23.50
2018-05-09T10:22:25.359Z,23.20
2018-05-09T10:24:53.555Z,22.80
2018-05-09T10:27:20.980Z,22.80
2018-05-09T10:29:48.432Z,22.60
2018-05-09T10:32:15.873Z,22.40
2018-05-09T10:34:43.292Z,22.50
2018-05-09T10:37:10.723Z,23.10
2018-05-09T10:39:38.920Z,22.40
2018-05-09T10:42:07.161Z,22.50
2018-05-09T10:44:34.600Z,21.30
2018-05-09T10:47:02.037Z,22.80
2018-05-09T10:49:29.459Z,22.10
2018-05-09T10:51:56.893Z,22.00
2018-05-09T10:54:24.354Z,21.90
2018-05-09T10:56:52.570Z,21.50
2018-05-09T10:59:19.987Z,21.00
2018-05-09T11:01:47.419Z,21.20
2018-05-09T11:04:15.681Z,21.30
2018-05-09T11:06:43.119Z,21.30
2018-05-09T11:09:10.532Z,22.00
2018-05-09T11:11:37.964Z,21.40
2018-05-09T11:14:06.160Z,20.60
2018-05-09T11:16:33.675Z,20.60
2018-05-09T11:19:01.170Z,21.70
2018-05-09T11:21:29.395Z,20.70
2018-05-09T11:23:56.823Z,20.70
2018-05-09T11:26:25.019Z,20.80
2018-05-09T11:28:52.446Z,20.70
2018-05-09T11:31:19.885Z,20.40
2018-05-09T11:33:48.148Z,20.10
2018-05-09T11:36:15.577Z,21.20
2018-05-09T11:38:43.018Z,21.30
2018-05-09T11:41:11.223Z,22.60
2018-05-09T11:43:38.649Z,22.60
2018-05-09T11:46:06.847Z,21.60
2018-05-09T11:48:35.275Z,21.60
2018-05-09T11:51:02.707Z,20.60
2018-05-09T11:53:30.136Z,21.20
2018-05-09T11:55:57.559Z,20.90
2018-05-09T11:58:25.756Z,20.40
2018-05-09T12:00:53.247Z,20.40
2018-05-09T12:03:21.606Z,20.30
2018-05-09T12:05:49.048Z,20.40
2018-05-09T12:08:17.238Z,19.70
2018-05-09T12:10:44.770Z,19.70
2018-05-09T12:13:12.864Z,22.20
2018-05-09T12:15:40.288Z,21.90
2018-05-09T12:18:07.796Z,22.40
2018-05-09T12:20:35.214Z,23.10
2018-05-09T12:23:03.415Z,21.40
2018-05-09T12:25:30.844Z,21.40
2018-05-09T12:27:59.051Z,21.40
2018-05-09T12:30:26.487Z,21.40
2018-05-09T12:32:54.803Z,21.00
2018-05-09T12:35:22.253Z,21.00
2018-05-09T12:37:50.681Z,20.20
2018-05-09T12:40:18.095Z,20.00
2018-05-09T12:42:45.536Z,20.50
2018-05-09T12:45:12.959Z,20.70
2018-05-09T12:47:41.202Z,22.40
2018-05-09T12:50:08.607Z,22.30
2018-05-09T12:52:36.823Z,23.50
2018-05-09T12:55:04.260Z,23.40
2018-05-09T12:57:31.695Z,24.60
2018-05-09T12:59:59.897Z,24.60
2018-05-09T13:02:27.427Z,24.60
2018-05-09T13:04:55.637Z,25.10
2018-05-09T13:07:23.090Z,25.10
2018-05-09T13:09:50.673Z,25.00
2018-05-09T13:12:18.167Z,25.50
2018-05-09T13:14:45.599Z,27.90
2018-05-09T13:17:13.027Z,27.20
2018-05-09T13:19:40.469Z,27.50
2018-05-09T13:22:08.656Z,27.50
2018-05-09T13:24:36.090Z,27.50
2018-05-09T13:27:04.315Z,28.00
2018-05-09T13:29:31.753Z,28.00
2018-05-09T13:31:59.196Z,28.10
2018-05-09T13:34:26.641Z,30.00
2018-05-09T13:36:54.831Z,29.50
2018-05-09T13:39:22.278Z,29.40
2018-05-09T13:41:50.633Z,29.60
2018-05-09T13:44:18.843Z,29.00
2018-05-09T13:46:46.276Z,28.90
2018-05-09T13:49:15.043Z,28.50
2018-05-09T13:51:42.491Z,28.50
2018-05-09T13:54:10.667Z,28.70
2018-05-09T13:56:38.100Z,28.00
2018-05-09T13:59:05.546Z,30.00
2018-05-09T14:01:33.865Z,28.00
2018-05-09T14:04:01.302Z,27.10
2018-05-09T14:06:28.723Z,27.20
2018-05-09T14:08:56.162Z,28.20
2018-05-09T14:11:24.352Z,28.30
2018-05-09T14:13:51.791Z,28.30
2018-05-09T14:16:19.983Z,28.90
2018-05-09T14:18:47.424Z,28.80
2018-05-09T14:21:15.628Z,27.50
2018-05-09T14:23:43.370Z,27.50
2018-05-09T14:26:11.589Z,28.00
2018-05-09T14:28:39.028Z,28.00
2018-05-09T14:31:06.443Z,27.40
2018-05-09T14:33:33.868Z,28.00
2018-05-09T14:36:02.071Z,28.30
2018-05-09T14:38:29.510Z,28.30
2018-05-09T14:40:56.931Z,27.50
2018-05-09T14:43:24.365Z,28.20
2018-05-09T14:45:52.570Z,27.50
2018-05-09T14:48:20.015Z,27.50
2018-05-09T14:50:47.452Z,27.40
2018-05-09T14:53:15.953Z,28.40
2018-05-09T14:55:43.375Z,28.40
2018-05-09T14:58:11.577Z,30.00
2018-05-09T15:00:39.007Z,29.90
2018-05-09T15:03:06.453Z,29.80
2018-05-09T15:05:33.872Z,30.20
2018-05-09T15:08:01.307Z,30.40
2018-05-09T15:10:28.741Z,30.00
2018-05-09T15:12:56.939Z,29.20
2018-05-09T15:15:24.364Z,29.10
2018-05-09T15:17:51.795Z,29.70
2018-05-09T15:20:19.265Z,29.30
2018-05-09T15:22:46.862Z,29.80
2018-05-09T15:25:15.126Z,29.50
2018-05-09T15:27:42.562Z,29.50
2018-05-09T15:30:10.012Z,29.10
2018-05-09T15:32:37.450Z,28.90
2018-05-09T15:35:04.875Z,29.70
2018-05-09T15:37:32.303Z,30.50
2018-05-09T15:39:59.744Z,29.30
2018-05-09T15:42:27.187Z,30.00
2018-05-09T15:44:54.695Z,30.40
2018-05-09T15:47:22.059Z,30.40
2018-05-09T15:49:49.491Z,30.00
2018-05-09T15:52:16.921Z,30.50
2018-05-09T15:54:44.357Z,30.40
2018-05-09T15:57:11.788Z,30.60
2018-05-09T15:59:39.236Z,30.90
2018-05-09T16:02:07.431Z,32.80
2018-05-09T16:04:34.873Z,32.80
2018-05-09T16:07:03.063Z,31.30
2018-05-09T16:09:30.501Z,31.30
2018-05-09T16:11:58.690Z,32.40
2018-05-09T16:14:26.139Z,32.40
2018-05-09T16:16:54.547Z,31.20
2018-05-09T16:19:21.981Z,31.20
2018-05-09T16:21:50.162Z,32.20
2018-05-09T16:24:17.599Z,32.20
2018-05-09T16:26:45.805Z,33.60
2018-05-09T16:29:13.226Z,33.50
2018-05-09T16:31:41.414Z,31.30
2018-05-09T16:34:09.613Z,31.30
2018-05-09T16:36:37.039Z,31.30
2018-05-09T16:39:05.232Z,31.90
2018-05-09T16:41:32.668Z,31.80
2018-05-09T16:44:00.912Z,32.30
2018-05-09T16:46:28.329Z,32.30
2018-05-09T16:48:55.840Z,32.40
2018-05-09T16:51:23.284Z,33.20
2018-05-09T16:53:51.468Z,33.50
2018-05-09T16:56:18.893Z,33.20
2018-05-09T16:58:46.331Z,33.90
2018-05-09T17:01:13.759Z,33.90
2018-05-09T17:03:41.194Z,36.40
2018-05-09T17:06:08.762Z,36.30
2018-05-09T17:08:36.971Z,37.50
2018-05-09T17:11:05.150Z,36.40
2018-05-09T17:13:32.597Z,37.10
2018-05-09T17:16:00.817Z,38.70
2018-05-09T17:18:28.291Z,38.70
2018-05-09T17:20:55.733Z,36.90
2018-05-09T17:23:23.200Z,37.00
2018-05-09T17:25:51.564Z,37.60
2018-05-09T17:28:18.981Z,36.30
2018-05-09T17:30:47.197Z,36.70
2018-05-09T17:33:14.627Z,36.70
2018-05-09T17:35:42.388Z,38.20
2018-05-09T17:38:10.595Z,39.20
2018-05-09T17:40:38.068Z,39.10
2018-05-09T17:43:05.566Z,37.90
2018-05-09T17:45:33.084Z,38.80
2018-05-09T17:48:00.524Z,38.70
2018-05-09T17:50:27.978Z,37.40
2018-05-09T17:52:55.390Z,38.60
2018-05-09T17:55:23.607Z,40.10
2018-05-09T17:57:52.430Z,39.40
2018-05-09T18:00:19.863Z,39.40
2018-05-09T18:02:47.389Z,40.40
2018-05-09T18:05:15.594Z,40.20
2018-05-09T18:07:43.043Z,40.20
2018-05-09T18:10:10.635Z,40.90
2018-05-09T18:12:38.137Z,41.70
2018-05-09T18:15:05.515Z,40.20
2018-05-09T18:17:32.964Z,42.60
2018-05-09T18:20:00.400Z,42.10
2018-05-09T18:22:28.597Z,42.20
2018-05-09T18:24:56.117Z,42.20
2018-05-09T18:27:23.540Z,42.30
2018-05-09T18:29:51.731Z,43.70
2018-05-09T18:32:19.164Z,43.30
2018-05-09T18:34:46.609Z,43.70
2018-05-09T18:37:14.041Z,43.90
2018-05-09T18:39:42.277Z,43.50
2018-05-09T18:42:09.710Z,43.50
2018-05-09T18:44:37.138Z,44.70
2018-05-09T18:47:05.371Z,44.40
2018-05-09T18:49:32.787Z,44.40
2018-05-09T18:52:01.011Z,44.70
2018-05-09T18:54:28.452Z,45.10
2018-05-09T18:56:55.916Z,45.10
2018-05-09T18:59:23.383Z,46.30
2018-05-09T19:01:51.847Z,47.30
2018-05-09T19:04:19.311Z,47.30
2018-05-09T19:06:46.755Z,47.50
2018-05-09T19:09:14.223Z,47.40
2018-05-09T19:11:41.651Z,48.40
2018-05-09T19:14:09.100Z,47.40
2018-05-09T19:16:36.548Z,46.90
2018-05-09T19:19:04.775Z,47.50
2018-05-09T19:21:32.208Z,45.90
2018-05-09T19:23:59.652Z,46.30
2018-05-09T19:26:27.083Z,48.40
2018-05-09T19:28:55.275Z,47.00
2018-05-09T19:31:22.739Z,47.00
2018-05-09T19:33:50.183Z,46.10
2018-05-09T19:36:18.395Z,48.00
2018-05-09T19:38:45.863Z,47.90
2018-05-09T19:41:13.348Z,48.00
2018-05-09T19:43:41.161Z,49.10
2018-05-09T19:46:09.391Z,48.80
2018-05-09T19:48:39.311Z,49.20
2018-05-09T19:51:07.630Z,48.50
2018-05-09T19:53:35.086Z,48.50
2018-05-09T19:56:03.269Z,51.40
2018-05-09T19:58:31.463Z,50.00
2018-05-09T20:03:28.447Z,51.30
2018-05-09T20:05:56.293Z,50.70
2018-05-09T20:08:24.492Z,50.50
2018-05-09T20:10:51.947Z,50.60
2018-05-09T20:13:19.396Z,50.20
2018-05-09T20:18:17.112Z,48.90
2018-05-09T20:20:44.950Z,49.70
2018-05-09T20:23:13.127Z,49.20
2018-05-09T20:25:41.330Z,51.20
2018-05-09T20:30:43.084Z,49.80
2018-05-09T20:33:10.509Z,50.30
2018-05-09T20:35:38.335Z,49.20
2018-05-09T20:38:06.540Z,49.40
2018-05-09T20:40:34.351Z,50.60
2018-05-09T20:43:02.543Z,51.20
2018-05-09T20:45:30.411Z,52.70
2018-05-09T20:47:58.602Z,52.30
2018-05-09T20:50:26.795Z,52.00
2018-05-09T20:52:55.004Z,51.70
2018-05-09T20:55:28.228Z,52.20
2018-05-09T20:57:56.428Z,53.40
2018-05-09T21:00:24.491Z,53.10
2018-05-09T21:02:52.797Z,54.10
2018-05-09T21:05:20.219Z,54.50
2018-05-09T21:07:57.196Z,53.00
2018-05-09T21:10:25.390Z,53.50
2018-05-09T21:12:53.596Z,53.00
2018-05-09T21:15:21.435Z,53.10
2018-05-09T21:17:49.628Z,53.90
2018-05-09T21:20:18.237Z,52.90
2018-05-09T21:22:45.670Z,53.60
2018-05-09T21:25:13.104Z,53.90
2018-05-09T21:27:40.573Z,53.80
2018-05-09T21:30:08.366Z,53.70
2018-05-09T21:32:36.560Z,53.70
2018-05-09T21:35:04.758Z,54.00
2018-05-09T21:37:32.591Z,54.40
2018-05-09T21:40:00.410Z,53.40
2018-05-09T21:42:28.618Z,53.10
2018-05-09T21:44:56.047Z,54.40
2018-05-09T21:47:23.490Z,54.40
2018-05-09T21:49:52.602Z,54.00
2018-05-09T21:52:20.093Z,53.90
2018-05-09T21:54:47.533Z,56.30
2018-05-09T21:57:14.968Z,55.50
2018-05-09T21:59:42.420Z,55.90
2018-05-09T22:02:10.633Z,56.10
2018-05-09T22:04:38.059Z,56.30
2018-05-09T22:07:05.560Z,57.60
2018-05-09T22:09:32.991Z,58.10
2018-05-09T22:12:00.419Z,58.10
2018-05-09T22:14:28.618Z,57.50
2018-05-09T22:16:56.042Z,56.20
2018-05-09T22:19:24.256Z,56.60
2018-05-09T22:21:52.934Z,56.80
2018-05-09T22:24:20.440Z,56.20
2018-05-09T22:26:47.888Z,56.70
2018-05-09T22:29:15.334Z,55.80
2018-05-09T22:31:42.788Z,56.30
2018-05-09T22:34:10.231Z,56.10
2018-05-09T22:36:37.671Z,55.90
2018-05-09T22:39:05.109Z,55.90
2018-05-09T22:41:33.295Z,56.20
2018-05-09T22:44:01.496Z,55.60
2018-05-09T22:46:28.924Z,55.60
2018-05-09T22:48:57.147Z,55.20
2018-05-09T22:51:24.571Z,55.20
2018-05-09T22:53:52.280Z,54.80
2018-05-09T22:56:20.484Z,53.80
2018-05-09T22:58:48.026Z,53.70
2018-05-09T23:01:15.450Z,54.20
2018-05-09T23:03:42.897Z,53.70
2018-05-09T23:06:10.375Z,53.50
2018-05-09T23:08:37.861Z,53.70
2018-05-09T23:11:05.391Z,53.10
2018-05-09T23:13:32.835Z,53.30
2018-05-09T23:16:00.301Z,53.00
2018-05-09T23:18:27.743Z,53.40
2018-05-09T23:20:55.242Z,52.60
2018-05-09T23:23:22.672Z,52.30
2018-05-09T23:25:50.098Z,52.50
2018-05-09T23:28:18.308Z,53.10
2018-05-09T23:30:45.732Z,53.10
2018-05-09T23:33:13.955Z,52.90
2018-05-09T23:35:41.374Z,52.80
2018-05-09T23:38:08.812Z,53.20
2018-05-09T23:40:37.084Z,53.30
2018-05-09T23:43:04.481Z,53.20
2018-05-09T23:45:31.914Z,54.10
2018-05-09T23:47:59.348Z,54.20
2018-05-09T23:50:27.548Z,54.50
2018-05-09T23:52:54.974Z,54.50
2018-05-09T23:55:22.490Z,54.50
2018-05-09T23:57:49.968Z,54.60
